sensor_id;sensor_type;location;lat;lon;timestamp;P1;durP1;ratioP1;P2;durP2;ratioP2
31037;SDS011;17702;47.590;7.666;2023-11-18T00:01:58;3.08;;;1.10;;
31037;SDS011;17702;47.590;7.666;2023-11-18T00:04:24;1.27;;;1.08;;
31037;SDS011;17702;47.590;7.666;2023-11-18T00:06:50;1.27;;;1.17;;
31037;SDS011;17702;47.590;7.666;2023-11-18T00:09:16;1.13;;;1.02;;
31037;SDS011;17702;47.590;7.666;2023-11-18T00:11:42;4.00;;;3.67;;
31037;SDS011;17702;47.590;7.666;2023-11-18T00:14:09;6.53;;;5.93;;
31037;SDS011;17702;47.590;7.666;2023-11-18T00:16:36;8.63;;;7.35;;
31037;SDS011;17702;47.590;7.666;2023-11-18T00:19:02;6.55;;;4.55;;
31037;SDS011;17702;47.590;7.666;2023-11-18T00:21:30;6.40;;;5.80;;
31037;SDS011;17702;47.590;7.666;2023-11-18T00:23:56;5.80;;;3.08;;
31037;SDS011;17702;47.590;7.666;2023-11-18T00:26:21;4.40;;;3.17;;
31037;SDS011;17702;47.590;7.666;2023-11-18T00:28:47;5.22;;;2.35;;
31037;SDS011;17702;47.590;7.666;2023-11-18T00:31:13;3.28;;;2.17;;
31037;SDS011;17702;47.590;7.666;2023-11-18T00:33:39;3.00;;;2.47;;
31037;SDS011;17702;47.590;7.666;2023-11-18T00:36:05;4.28;;;2.60;;
31037;SDS011;17702;47.590;7.666;2023-11-18T00:38:31;2.92;;;2.63;;
31037;SDS011;17702;47.590;7.666;2023-11-18T00:40:57;2.45;;;2.22;;
31037;SDS011;17702;47.590;7.666;2023-11-18T00:43:23;4.00;;;2.30;;
31037;SDS011;17702;47.590;7.666;2023-11-18T00:45:48;6.55;;;2.50;;
31037;SDS011;17702;47.590;7.666;2023-11-18T00:48:14;2.42;;;2.22;;
31037;SDS011;17702;47.590;7.666;2023-11-18T00:50:40;3.40;;;2.47;;
31037;SDS011;17702;47.590;7.666;2023-11-18T00:53:05;3.50;;;2.72;;
31037;SDS011;17702;47.590;7.666;2023-11-18T00:55:31;6.32;;;4.57;;
31037;SDS011;17702;47.590;7.666;2023-11-18T00:57:57;5.25;;;4.22;;
31037;SDS011;17702;47.590;7.666;2023-11-18T01:00:23;6.40;;;3.80;;
31037;SDS011;17702;47.590;7.666;2023-11-18T01:02:52;6.95;;;4.70;;
31037;SDS011;17702;47.590;7.666;2023-11-18T01:05:19;9.18;;;6.28;;
31037;SDS011;17702;47.590;7.666;2023-11-18T01:07:45;6.22;;;3.88;;
31037;SDS011;17702;47.590;7.666;2023-11-18T01:10:11;3.92;;;3.65;;
31037;SDS011;17702;47.590;7.666;2023-11-18T01:12:38;5.10;;;4.60;;
31037;SDS011;17702;47.590;7.666;2023-11-18T01:15:04;4.30;;;4.00;;
31037;SDS011;17702;47.590;7.666;2023-11-18T01:17:31;5.03;;;4.57;;
31037;SDS011;17702;47.590;7.666;2023-11-18T01:19:57;5.43;;;4.93;;
31037;SDS011;17702;47.590;7.666;2023-11-18T01:22:23;7.85;;;4.45;;
31037;SDS011;17702;47.590;7.666;2023-11-18T01:24:49;6.10;;;4.40;;
31037;SDS011;17702;47.590;7.666;2023-11-18T01:27:16;5.80;;;4.53;;
31037;SDS011;17702;47.590;7.666;2023-11-18T01:29:44;6.63;;;4.07;;
31037;SDS011;17702;47.590;7.666;2023-11-18T01:32:12;5.28;;;4.78;;
31037;SDS011;17702;47.590;7.666;2023-11-18T01:34:39;5.85;;;3.75;;
31037;SDS011;17702;47.590;7.666;2023-11-18T01:37:05;8.50;;;4.07;;
31037;SDS011;17702;47.590;7.666;2023-11-18T01:39:35;4.45;;;4.05;;
31037;SDS011;17702;47.590;7.666;2023-11-18T01:42:01;9.15;;;4.40;;
31037;SDS011;17702;47.590;7.666;2023-11-18T01:44:28;5.40;;;3.60;;
31037;SDS011;17702;47.590;7.666;2023-11-18T01:46:57;5.82;;;3.85;;
31037;SDS011;17702;47.590;7.666;2023-11-18T01:49:23;3.72;;;3.42;;
31037;SDS011;17702;47.590;7.666;2023-11-18T01:51:52;7.60;;;3.45;;
31037;SDS011;17702;47.590;7.666;2023-11-18T01:54:18;4.28;;;3.88;;
31037;SDS011;17702;47.590;7.666;2023-11-18T01:56:46;8.50;;;4.35;;
31037;SDS011;17702;47.590;7.666;2023-11-18T01:59:13;4.45;;;3.90;;
31037;SDS011;17702;47.590;7.666;2023-11-18T02:01:48;3.67;;;3.38;;
31037;SDS011;17702;47.590;7.666;2023-11-18T02:04:18;4.15;;;3.80;;
31037;SDS011;17702;47.590;7.666;2023-11-18T02:06:45;6.40;;;3.97;;
31037;SDS011;17702;47.590;7.666;2023-11-18T02:09:13;6.03;;;3.65;;
31037;SDS011;17702;47.590;7.666;2023-11-18T02:11:48;3.38;;;3.17;;
31037;SDS011;17702;47.590;7.666;2023-11-18T02:14:20;5.38;;;3.30;;
31037;SDS011;17702;47.590;7.666;2023-11-18T02:16:47;5.85;;;3.35;;
31037;SDS011;17702;47.590;7.666;2023-11-18T02:19:20;3.40;;;3.10;;
31037;SDS011;17702;47.590;7.666;2023-11-18T02:21:49;5.13;;;3.30;;
31037;SDS011;17702;47.590;7.666;2023-11-18T02:24:27;3.35;;;3.10;;
31037;SDS011;17702;47.590;7.666;2023-11-18T02:26:56;5.00;;;3.72;;
31037;SDS011;17702;47.590;7.666;2023-11-18T02:29:23;4.80;;;3.20;;
31037;SDS011;17702;47.590;7.666;2023-11-18T02:31:52;3.38;;;3.17;;
31037;SDS011;17702;47.590;7.666;2023-11-18T02:34:22;3.25;;;2.95;;
31037;SDS011;17702;47.590;7.666;2023-11-18T02:36:53;2.95;;;2.75;;
31037;SDS011;17702;47.590;7.666;2023-11-18T02:39:27;8.18;;;2.88;;
31037;SDS011;17702;47.590;7.666;2023-11-18T02:41:59;5.03;;;3.38;;
31037;SDS011;17702;47.590;7.666;2023-11-18T02:44:28;3.53;;;2.70;;
31037;SDS011;17702;47.590;7.666;2023-11-18T02:46:57;4.82;;;2.67;;
31037;SDS011;17702;47.590;7.666;2023-11-18T02:49:23;2.78;;;2.40;;
31037;SDS011;17702;47.590;7.666;2023-11-18T02:51:48;4.75;;;2.50;;
31037;SDS011;17702;47.590;7.666;2023-11-18T02:54:14;4.13;;;2.45;;
31037;SDS011;17702;47.590;7.666;2023-11-18T02:56:41;7.00;;;3.72;;
31037;SDS011;17702;47.590;7.666;2023-11-18T02:59:07;3.92;;;3.58;;
31037;SDS011;17702;47.590;7.666;2023-11-18T03:01:33;4.70;;;3.92;;
31037;SDS011;17702;47.590;7.666;2023-11-18T03:03:59;4.45;;;3.85;;
31037;SDS011;17702;47.590;7.666;2023-11-18T03:06:25;3.22;;;3.03;;
31037;SDS011;17702;47.590;7.666;2023-11-18T03:08:51;5.80;;;3.47;;
31037;SDS011;17702;47.590;7.666;2023-11-18T03:11:17;3.95;;;3.58;;
31037;SDS011;17702;47.590;7.666;2023-11-18T03:13:44;4.07;;;3.42;;
31037;SDS011;17702;47.590;7.666;2023-11-18T03:16:11;5.30;;;4.30;;
31037;SDS011;17702;47.590;7.666;2023-11-18T03:18:40;3.88;;;3.22;;
31037;SDS011;17702;47.590;7.666;2023-11-18T03:21:13;4.40;;;3.55;;
31037;SDS011;17702;47.590;7.666;2023-11-18T03:23:39;3.58;;;3.38;;
31037;SDS011;17702;47.590;7.666;2023-11-18T03:26:06;4.13;;;3.47;;
31037;SDS011;17702;47.590;7.666;2023-11-18T03:28:32;3.90;;;3.03;;
31037;SDS011;17702;47.590;7.666;2023-11-18T03:30:58;3.85;;;3.33;;
31037;SDS011;17702;47.590;7.666;2023-11-18T03:33:24;3.20;;;3.00;;
31037;SDS011;17702;47.590;7.666;2023-11-18T03:35:49;3.60;;;3.30;;
31037;SDS011;17702;47.590;7.666;2023-11-18T03:38:15;4.90;;;3.20;;
31037;SDS011;17702;47.590;7.666;2023-11-18T03:40:44;6.22;;;3.40;;
31037;SDS011;17702;47.590;7.666;2023-11-18T03:43:10;3.47;;;3.17;;
31037;SDS011;17702;47.590;7.666;2023-11-18T03:45:38;6.20;;;3.30;;
31037;SDS011;17702;47.590;7.666;2023-11-18T03:48:05;3.42;;;2.78;;
31037;SDS011;17702;47.590;7.666;2023-11-18T03:50:31;5.70;;;2.95;;
31037;SDS011;17702;47.590;7.666;2023-11-18T03:52:57;3.33;;;3.03;;
31037;SDS011;17702;47.590;7.666;2023-11-18T03:55:23;5.35;;;3.10;;
31037;SDS011;17702;47.590;7.666;2023-11-18T03:57:50;3.08;;;2.88;;
31037;SDS011;17702;47.590;7.666;2023-11-18T04:00:16;4.38;;;2.50;;
31037;SDS011;17702;47.590;7.666;2023-11-18T04:02:42;2.97;;;2.33;;
31037;SDS011;17702;47.590;7.666;2023-11-18T04:05:10;3.28;;;2.20;;
31037;SDS011;17702;47.590;7.666;2023-11-18T04:07:37;3.65;;;2.35;;
31037;SDS011;17702;47.590;7.666;2023-11-18T04:10:03;3.50;;;2.17;;
31037;SDS011;17702;47.590;7.666;2023-11-18T04:12:31;3.70;;;2.33;;
31037;SDS011;17702;47.590;7.666;2023-11-18T04:14:57;2.75;;;2.55;;
31037;SDS011;17702;47.590;7.666;2023-11-18T04:17:22;3.22;;;2.92;;
31037;SDS011;17702;47.590;7.666;2023-11-18T04:19:48;4.70;;;2.63;;
31037;SDS011;17702;47.590;7.666;2023-11-18T04:22:13;2.40;;;2.20;;
31037;SDS011;17702;47.590;7.666;2023-11-18T04:24:39;4.38;;;3.08;;
31037;SDS011;17702;47.590;7.666;2023-11-18T04:27:05;3.33;;;2.60;;
31037;SDS011;17702;47.590;7.666;2023-11-18T04:29:30;2.88;;;2.67;;
31037;SDS011;17702;47.590;7.666;2023-11-18T04:31:56;4.30;;;3.85;;
31037;SDS011;17702;47.590;7.666;2023-11-18T04:34:21;5.38;;;4.50;;
31037;SDS011;17702;47.590;7.666;2023-11-18T04:36:48;4.53;;;4.15;;
31037;SDS011;17702;47.590;7.666;2023-11-18T04:39:13;4.43;;;4.03;;
31037;SDS011;17702;47.590;7.666;2023-11-18T04:41:40;4.03;;;3.72;;
31037;SDS011;17702;47.590;7.666;2023-11-18T04:44:07;4.78;;;4.38;;
31037;SDS011;17702;47.590;7.666;2023-11-18T04:46:32;4.50;;;3.70;;
31037;SDS011;17702;47.590;7.666;2023-11-18T04:48:59;4.40;;;4.00;;
31037;SDS011;17702;47.590;7.666;2023-11-18T04:51:26;6.03;;;3.80;;
31037;SDS011;17702;47.590;7.666;2023-11-18T04:53:52;4.00;;;3.53;;
31037;SDS011;17702;47.590;7.666;2023-11-18T04:56:18;3.97;;;3.67;;
31037;SDS011;17702;47.590;7.666;2023-11-18T04:58:44;3.35;;;3.08;;
31037;SDS011;17702;47.590;7.666;2023-11-18T05:01:12;4.28;;;3.17;;
31037;SDS011;17702;47.590;7.666;2023-11-18T05:03:38;3.33;;;3.13;;
31037;SDS011;17702;47.590;7.666;2023-11-18T05:06:04;3.42;;;3.13;;
31037;SDS011;17702;47.590;7.666;2023-11-18T05:08:30;3.15;;;2.95;;
31037;SDS011;17702;47.590;7.666;2023-11-18T05:10:56;4.70;;;2.85;;
31037;SDS011;17702;47.590;7.666;2023-11-18T05:13:22;3.30;;;3.00;;
31037;SDS011;17702;47.590;7.666;2023-11-18T05:15:48;3.30;;;2.67;;
31037;SDS011;17702;47.590;7.666;2023-11-18T05:18:15;3.88;;;3.05;;
31037;SDS011;17702;47.590;7.666;2023-11-18T05:20:41;3.90;;;3.60;;
31037;SDS011;17702;47.590;7.666;2023-11-18T05:23:09;5.30;;;4.82;;
31037;SDS011;17702;47.590;7.666;2023-11-18T05:25:42;4.82;;;4.40;;
31037;SDS011;17702;47.590;7.666;2023-11-18T05:28:08;5.40;;;4.95;;
31037;SDS011;17702;47.590;7.666;2023-11-18T05:30:34;6.28;;;5.68;;
31037;SDS011;17702;47.590;7.666;2023-11-18T05:33:02;8.20;;;5.43;;
31037;SDS011;17702;47.590;7.666;2023-11-18T05:35:30;7.75;;;5.97;;
31037;SDS011;17702;47.590;7.666;2023-11-18T05:37:56;6.38;;;5.78;;
31037;SDS011;17702;47.590;7.666;2023-11-18T05:40:22;6.60;;;5.13;;
31037;SDS011;17702;47.590;7.666;2023-11-18T05:42:48;6.63;;;5.55;;
31037;SDS011;17702;47.590;7.666;2023-11-18T05:45:17;5.40;;;4.90;;
31037;SDS011;17702;47.590;7.666;2023-11-18T05:47:56;6.22;;;5.10;;
31037;SDS011;17702;47.590;7.666;2023-11-18T05:50:22;5.50;;;5.00;;
31037;SDS011;17702;47.590;7.666;2023-11-18T05:52:51;4.50;;;4.10;;
31037;SDS011;17702;47.590;7.666;2023-11-18T05:55:17;5.13;;;4.22;;
31037;SDS011;17702;47.590;7.666;2023-11-18T05:57:43;4.82;;;4.35;;
31037;SDS011;17702;47.590;7.666;2023-11-18T06:00:11;5.72;;;3.88;;
31037;SDS011;17702;47.590;7.666;2023-11-18T06:02:40;4.93;;;4.22;;
31037;SDS011;17702;47.590;7.666;2023-11-18T06:05:06;5.22;;;4.57;;
31037;SDS011;17702;47.590;7.666;2023-11-18T06:07:32;4.55;;;4.15;;
31037;SDS011;17702;47.590;7.666;2023-11-18T06:10:00;4.70;;;4.18;;
31037;SDS011;17702;47.590;7.666;2023-11-18T06:12:26;4.97;;;4.45;;
31037;SDS011;17702;47.590;7.666;2023-11-18T06:14:52;7.68;;;5.03;;
31037;SDS011;17702;47.590;7.666;2023-11-18T06:17:17;4.63;;;4.28;;
31037;SDS011;17702;47.590;7.666;2023-11-18T06:19:44;5.43;;;4.57;;
31037;SDS011;17702;47.590;7.666;2023-11-18T06:22:09;7.60;;;5.03;;
31037;SDS011;17702;47.590;7.666;2023-11-18T06:24:35;4.03;;;3.72;;
31037;SDS011;17702;47.590;7.666;2023-11-18T06:27:04;4.60;;;4.22;;
31037;SDS011;17702;47.590;7.666;2023-11-18T06:29:32;4.03;;;3.58;;
31037;SDS011;17702;47.590;7.666;2023-11-18T06:31:58;5.57;;;4.18;;
31037;SDS011;17702;47.590;7.666;2023-11-18T06:34:23;4.10;;;3.80;;
31037;SDS011;17702;47.590;7.666;2023-11-18T06:36:49;6.50;;;5.72;;
31037;SDS011;17702;47.590;7.666;2023-11-18T06:39:15;8.77;;;5.78;;
31037;SDS011;17702;47.590;7.666;2023-11-18T06:41:41;8.55;;;6.03;;
31037;SDS011;17702;47.590;7.666;2023-11-18T06:44:13;7.03;;;6.03;;
31037;SDS011;17702;47.590;7.666;2023-11-18T06:46:43;6.85;;;6.15;;
31037;SDS011;17702;47.590;7.666;2023-11-18T06:49:09;7.00;;;6.18;;
31037;SDS011;17702;47.590;7.666;2023-11-18T06:51:40;6.40;;;5.80;;
31037;SDS011;17702;47.590;7.666;2023-11-18T06:54:06;6.38;;;5.28;;
31037;SDS011;17702;47.590;7.666;2023-11-18T06:56:36;5.50;;;5.03;;
31037;SDS011;17702;47.590;7.666;2023-11-18T06:59:03;5.30;;;4.90;;
31037;SDS011;17702;47.590;7.666;2023-11-18T07:01:32;5.20;;;4.78;;
31037;SDS011;17702;47.590;7.666;2023-11-18T07:04:01;5.72;;;4.93;;
31037;SDS011;17702;47.590;7.666;2023-11-18T07:06:27;5.35;;;4.85;;
31037;SDS011;17702;47.590;7.666;2023-11-18T07:08:53;5.00;;;4.55;;
31037;SDS011;17702;47.590;7.666;2023-11-18T07:11:25;6.70;;;5.00;;
31037;SDS011;17702;47.590;7.666;2023-11-18T07:13:51;5.22;;;4.35;;
31037;SDS011;17702;47.590;7.666;2023-11-18T07:16:21;5.70;;;5.03;;
31037;SDS011;17702;47.590;7.666;2023-11-18T07:18:48;5.63;;;4.05;;
31037;SDS011;17702;47.590;7.666;2023-11-18T07:21:13;5.63;;;4.13;;
31037;SDS011;17702;47.590;7.666;2023-11-18T07:23:39;4.97;;;4.00;;
31037;SDS011;17702;47.590;7.666;2023-11-18T07:26:05;6.65;;;4.45;;
31037;SDS011;17702;47.590;7.666;2023-11-18T07:28:30;6.45;;;4.20;;
31037;SDS011;17702;47.590;7.666;2023-11-18T07:30:57;5.60;;;3.80;;
31037;SDS011;17702;47.590;7.666;2023-11-18T07:33:23;5.32;;;3.75;;
31037;SDS011;17702;47.590;7.666;2023-11-18T07:35:49;3.85;;;3.55;;
31037;SDS011;17702;47.590;7.666;2023-11-18T07:38:15;3.60;;;3.30;;
31037;SDS011;17702;47.590;7.666;2023-11-18T07:40:41;5.55;;;3.65;;
31037;SDS011;17702;47.590;7.666;2023-11-18T07:43:10;6.10;;;3.33;;
31037;SDS011;17702;47.590;7.666;2023-11-18T07:45:37;4.55;;;3.40;;
31037;SDS011;17702;47.590;7.666;2023-11-18T07:48:04;5.18;;;3.47;;
31037;SDS011;17702;47.590;7.666;2023-11-18T07:50:33;4.05;;;3.10;;
31037;SDS011;17702;47.590;7.666;2023-11-18T07:52:59;4.13;;;3.25;;
31037;SDS011;17702;47.590;7.666;2023-11-18T07:55:25;5.65;;;2.95;;
31037;SDS011;17702;47.590;7.666;2023-11-18T07:57:50;3.53;;;3.22;;
31037;SDS011;17702;47.590;7.666;2023-11-18T08:00:17;4.60;;;3.13;;
31037;SDS011;17702;47.590;7.666;2023-11-18T08:02:42;3.63;;;2.80;;
31037;SDS011;17702;47.590;7.666;2023-11-18T08:05:09;10.77;;;3.42;;
31037;SDS011;17702;47.590;7.666;2023-11-18T08:07:44;5.53;;;2.72;;
31037;SDS011;17702;47.590;7.666;2023-11-18T08:10:10;5.38;;;2.88;;
31037;SDS011;17702;47.590;7.666;2023-11-18T08:12:38;3.42;;;3.10;;
31037;SDS011;17702;47.590;7.666;2023-11-18T08:15:04;5.60;;;2.88;;
31037;SDS011;17702;47.590;7.666;2023-11-18T08:17:34;4.45;;;3.05;;
31037;SDS011;17702;47.590;7.666;2023-11-18T08:20:00;6.10;;;3.80;;
31037;SDS011;17702;47.590;7.666;2023-11-18T08:22:25;4.38;;;3.97;;
31037;SDS011;17702;47.590;7.666;2023-11-18T08:24:51;3.97;;;3.58;;
31037;SDS011;17702;47.590;7.666;2023-11-18T08:27:16;4.53;;;3.55;;
31037;SDS011;17702;47.590;7.666;2023-11-18T08:29:42;4.25;;;3.67;;
31037;SDS011;17702;47.590;7.666;2023-11-18T08:32:08;5.20;;;4.10;;
31037;SDS011;17702;47.590;7.666;2023-11-18T08:34:35;6.28;;;3.80;;
31037;SDS011;17702;47.590;7.666;2023-11-18T08:37:03;4.00;;;3.67;;
31037;SDS011;17702;47.590;7.666;2023-11-18T08:39:29;4.68;;;3.60;;
31037;SDS011;17702;47.590;7.666;2023-11-18T08:41:55;7.97;;;3.83;;
31037;SDS011;17702;47.590;7.666;2023-11-18T08:44:21;6.95;;;3.83;;
31037;SDS011;17702;47.590;7.666;2023-11-18T08:46:47;7.53;;;4.18;;
31037;SDS011;17702;47.590;7.666;2023-11-18T08:49:13;6.10;;;4.72;;
31037;SDS011;17702;47.590;7.666;2023-11-18T08:51:46;6.88;;;5.13;;
31037;SDS011;17702;47.590;7.666;2023-11-18T08:54:20;5.88;;;4.60;;
31037;SDS011;17702;47.590;7.666;2023-11-18T08:57:01;5.25;;;4.55;;
31037;SDS011;17702;47.590;7.666;2023-11-18T08:59:49;6.65;;;4.65;;
31037;SDS011;17702;47.590;7.666;2023-11-18T09:02:16;7.13;;;4.80;;
31037;SDS011;17702;47.590;7.666;2023-11-18T09:04:48;5.47;;;4.72;;
31037;SDS011;17702;47.590;7.666;2023-11-18T09:07:14;6.72;;;4.50;;
31037;SDS011;17702;47.590;7.666;2023-11-18T09:09:40;4.43;;;4.03;;
31037;SDS011;17702;47.590;7.666;2023-11-18T09:12:06;4.70;;;4.22;;
31037;SDS011;17702;47.590;7.666;2023-11-18T09:14:33;4.88;;;4.47;;
31037;SDS011;17702;47.590;7.666;2023-11-18T09:16:59;4.80;;;4.45;;
31037;SDS011;17702;47.590;7.666;2023-11-18T09:19:25;7.95;;;4.45;;
31037;SDS011;17702;47.590;7.666;2023-11-18T09:21:50;8.00;;;4.47;;
31037;SDS011;17702;47.590;7.666;2023-11-18T09:24:20;7.28;;;4.63;;
31037;SDS011;17702;47.590;7.666;2023-11-18T09:26:46;8.93;;;4.68;;
31037;SDS011;17702;47.590;7.666;2023-11-18T09:29:19;4.18;;;3.78;;
31037;SDS011;17702;47.590;7.666;2023-11-18T09:31:49;5.88;;;4.97;;
31037;SDS011;17702;47.590;7.666;2023-11-18T09:34:17;5.25;;;4.68;;
31037;SDS011;17702;47.590;7.666;2023-11-18T09:36:43;5.63;;;4.45;;
31037;SDS011;17702;47.590;7.666;2023-11-18T09:39:09;4.93;;;4.47;;
31037;SDS011;17702;47.590;7.666;2023-11-18T09:41:49;4.25;;;3.95;;
31037;SDS011;17702;47.590;7.666;2023-11-18T09:44:16;6.75;;;4.75;;
31037;SDS011;17702;47.590;7.666;2023-11-18T09:46:43;7.38;;;5.18;;
31037;SDS011;17702;47.590;7.666;2023-11-18T09:49:26;5.10;;;4.63;;
31037;SDS011;17702;47.590;7.666;2023-11-18T09:51:58;5.70;;;5.10;;
31037;SDS011;17702;47.590;7.666;2023-11-18T09:57:27;5.80;;;5.30;;
31037;SDS011;17702;47.590;7.666;2023-11-18T10:00:06;5.53;;;5.00;;
31037;SDS011;17702;47.590;7.666;2023-11-18T10:02:45;6.35;;;5.25;;
31037;SDS011;17702;47.590;7.666;2023-11-18T10:05:12;6.13;;;5.10;;
31037;SDS011;17702;47.590;7.666;2023-11-18T10:07:42;9.90;;;5.70;;
31037;SDS011;17702;47.590;7.666;2023-11-18T10:10:08;15.27;;;13.65;;
31037;SDS011;17702;47.590;7.666;2023-11-18T10:12:46;16.17;;;10.55;;
31037;SDS011;17702;47.590;7.666;2023-11-18T10:15:22;7.40;;;6.63;;
31037;SDS011;17702;47.590;7.666;2023-11-18T10:17:49;7.03;;;6.03;;
31037;SDS011;17702;47.590;7.666;2023-11-18T10:20:22;15.80;;;11.52;;
31037;SDS011;17702;47.590;7.666;2023-11-18T10:23:05;5.97;;;5.35;;
31037;SDS011;17702;47.590;7.666;2023-11-18T10:25:32;6.45;;;5.07;;
31037;SDS011;17702;47.590;7.666;2023-11-18T10:28:00;6.60;;;4.90;;
31037;SDS011;17702;47.590;7.666;2023-11-18T10:30:27;7.85;;;5.25;;
31037;SDS011;17702;47.590;7.666;2023-11-18T10:33:00;7.00;;;5.32;;
31037;SDS011;17702;47.590;7.666;2023-11-18T10:35:34;5.93;;;5.38;;
31037;SDS011;17702;47.590;7.666;2023-11-18T10:38:03;7.20;;;5.10;;
31037;SDS011;17702;47.590;7.666;2023-11-18T10:40:32;7.68;;;4.97;;
31037;SDS011;17702;47.590;7.666;2023-11-18T10:43:05;5.93;;;5.32;;
31037;SDS011;17702;47.590;7.666;2023-11-18T10:45:34;5.63;;;5.03;;
31037;SDS011;17702;47.590;7.666;2023-11-18T10:48:06;5.80;;;5.22;;
31037;SDS011;17702;47.590;7.666;2023-11-18T10:50:33;4.85;;;4.45;;
31037;SDS011;17702;47.590;7.666;2023-11-18T10:53:02;5.00;;;4.60;;
31037;SDS011;17702;47.590;7.666;2023-11-18T10:55:37;5.18;;;4.78;;
31037;SDS011;17702;47.590;7.666;2023-11-18T10:58:03;5.25;;;4.78;;
31037;SDS011;17702;47.590;7.666;2023-11-18T11:00:30;5.88;;;4.30;;
31037;SDS011;17702;47.590;7.666;2023-11-18T11:03:13;5.35;;;4.85;;
31037;SDS011;17702;47.590;7.666;2023-11-18T11:05:39;5.22;;;4.80;;
31037;SDS011;17702;47.590;7.666;2023-11-18T11:08:07;9.65;;;5.30;;
31037;SDS011;17702;47.590;7.666;2023-11-18T11:10:33;5.63;;;5.13;;
31037;SDS011;17702;47.590;7.666;2023-11-18T11:13:01;6.13;;;5.53;;
31037;SDS011;17702;47.590;7.666;2023-11-18T11:15:31;6.25;;;5.40;;
31037;SDS011;17702;47.590;7.666;2023-11-18T11:18:07;5.03;;;4.63;;
31037;SDS011;17702;47.590;7.666;2023-11-18T11:20:37;7.20;;;4.88;;
31037;SDS011;17702;47.590;7.666;2023-11-18T11:28:56;6.35;;;4.90;;
31037;SDS011;17702;47.590;7.666;2023-11-18T11:31:39;6.32;;;5.40;;
31037;SDS011;17702;47.590;7.666;2023-11-18T11:34:08;8.73;;;5.40;;
31037;SDS011;17702;47.590;7.666;2023-11-18T11:36:49;5.90;;;5.30;;
31037;SDS011;17702;47.590;7.666;2023-11-18T11:39:16;6.55;;;5.95;;
31037;SDS011;17702;47.590;7.666;2023-11-18T11:41:50;6.60;;;5.90;;
31037;SDS011;17702;47.590;7.666;2023-11-18T11:44:17;5.63;;;5.03;;
31037;SDS011;17702;47.590;7.666;2023-11-18T11:46:46;7.30;;;5.50;;
31037;SDS011;17702;47.590;7.666;2023-11-18T11:49:18;7.60;;;5.40;;
31037;SDS011;17702;47.590;7.666;2023-11-18T11:54:26;6.15;;;5.30;;
31037;SDS011;17702;47.590;7.666;2023-11-18T11:56:56;5.28;;;4.85;;
31037;SDS011;17702;47.590;7.666;2023-11-18T12:02:25;5.95;;;5.38;;
31037;SDS011;17702;47.590;7.666;2023-11-18T12:04:54;7.70;;;5.47;;
31037;SDS011;17702;47.590;7.666;2023-11-18T12:07:23;5.80;;;5.13;;
31037;SDS011;17702;47.590;7.666;2023-11-18T12:09:58;5.80;;;5.30;;
31037;SDS011;17702;47.590;7.666;2023-11-18T12:12:26;7.57;;;5.88;;
31037;SDS011;17702;47.590;7.666;2023-11-18T12:17:22;6.00;;;5.40;;
31037;SDS011;17702;47.590;7.666;2023-11-18T12:19:49;6.25;;;5.05;;
31037;SDS011;17702;47.590;7.666;2023-11-18T12:22:21;6.28;;;5.78;;
31037;SDS011;17702;47.590;7.666;2023-11-18T12:33:00;5.70;;;5.20;;
31037;SDS011;17702;47.590;7.666;2023-11-18T12:38:59;5.65;;;4.70;;
31037;SDS011;17702;47.590;7.666;2023-11-18T12:41:40;5.65;;;5.03;;
31037;SDS011;17702;47.590;7.666;2023-11-18T12:49:21;6.10;;;5.50;;
31037;SDS011;17702;47.590;7.666;2023-11-18T12:51:54;5.78;;;5.28;;
31037;SDS011;17702;47.590;7.666;2023-11-18T12:54:21;5.30;;;4.90;;
31037;SDS011;17702;47.590;7.666;2023-11-18T12:56:50;5.72;;;5.18;;
31037;SDS011;17702;47.590;7.666;2023-11-18T12:59:18;5.25;;;4.90;;
31037;SDS011;17702;47.590;7.666;2023-11-18T13:01:52;8.70;;;5.53;;
31037;SDS011;17702;47.590;7.666;2023-11-18T13:06:52;5.78;;;5.22;;
31037;SDS011;17702;47.590;7.666;2023-11-18T13:09:19;5.53;;;4.93;;
31037;SDS011;17702;47.590;7.666;2023-11-18T13:14:25;5.68;;;5.07;;
31037;SDS011;17702;47.590;7.666;2023-11-18T13:16:53;10.75;;;5.45;;
31037;SDS011;17702;47.590;7.666;2023-11-18T13:19:25;5.60;;;5.03;;
31037;SDS011;17702;47.590;7.666;2023-11-18T13:21:56;6.53;;;5.93;;
31037;SDS011;17702;47.590;7.666;2023-11-18T13:26:49;5.85;;;5.35;;
31037;SDS011;17702;47.590;7.666;2023-11-18T13:29:15;6.93;;;5.20;;
31037;SDS011;17702;47.590;7.666;2023-11-18T13:31:41;7.57;;;5.63;;
31037;SDS011;17702;47.590;7.666;2023-11-18T13:34:07;6.05;;;5.45;;
31037;SDS011;17702;47.590;7.666;2023-11-18T13:36:35;6.15;;;5.43;;
31037;SDS011;17702;47.590;7.666;2023-11-18T13:39:02;5.97;;;5.40;;
31037;SDS011;17702;47.590;7.666;2023-11-18T13:41:28;5.07;;;4.68;;
31037;SDS011;17702;47.590;7.666;2023-11-18T13:43:54;5.95;;;5.13;;
31037;SDS011;17702;47.590;7.666;2023-11-18T13:46:21;7.22;;;6.13;;
31037;SDS011;17702;47.590;7.666;2023-11-18T13:48:47;7.03;;;5.78;;
31037;SDS011;17702;47.590;7.666;2023-11-18T13:51:16;5.38;;;4.88;;
31037;SDS011;17702;47.590;7.666;2023-11-18T13:53:44;5.72;;;5.13;;
31037;SDS011;17702;47.590;7.666;2023-11-18T13:56:11;5.78;;;5.20;;
31037;SDS011;17702;47.590;7.666;2023-11-18T13:58:41;5.70;;;5.20;;
31037;SDS011;17702;47.590;7.666;2023-11-18T14:01:08;5.88;;;5.30;;
31037;SDS011;17702;47.590;7.666;2023-11-18T14:03:37;8.77;;;5.20;;
31037;SDS011;17702;47.590;7.666;2023-11-18T14:06:05;5.55;;;5.05;;
31037;SDS011;17702;47.590;7.666;2023-11-18T14:08:31;6.65;;;5.20;;
31037;SDS011;17702;47.590;7.666;2023-11-18T14:10:59;5.28;;;4.82;;
31037;SDS011;17702;47.590;7.666;2023-11-18T14:13:25;6.93;;;5.13;;
31037;SDS011;17702;47.590;7.666;2023-11-18T14:15:55;6.30;;;4.78;;
31037;SDS011;17702;47.590;7.666;2023-11-18T14:18:24;5.97;;;5.10;;
31037;SDS011;17702;47.590;7.666;2023-11-18T14:20:51;6.55;;;5.70;;
31037;SDS011;17702;47.590;7.666;2023-11-18T14:23:16;5.93;;;5.00;;
31037;SDS011;17702;47.590;7.666;2023-11-18T14:25:43;5.88;;;5.28;;
31037;SDS011;17702;47.590;7.666;2023-11-18T14:28:10;6.10;;;4.78;;
31037;SDS011;17702;47.590;7.666;2023-11-18T14:30:36;6.07;;;5.47;;
31037;SDS011;17702;47.590;7.666;2023-11-18T14:33:01;5.88;;;5.40;;
31037;SDS011;17702;47.590;7.666;2023-11-18T14:35:28;5.07;;;4.60;;
31037;SDS011;17702;47.590;7.666;2023-11-18T14:37:54;5.65;;;5.10;;
31037;SDS011;17702;47.590;7.666;2023-11-18T14:40:21;8.73;;;5.10;;
31037;SDS011;17702;47.590;7.666;2023-11-18T14:42:49;5.32;;;4.80;;
31037;SDS011;17702;47.590;7.666;2023-11-18T14:45:15;5.45;;;4.95;;
31037;SDS011;17702;47.590;7.666;2023-11-18T14:47:42;6.70;;;4.45;;
31037;SDS011;17702;47.590;7.666;2023-11-18T14:52:49;6.72;;;5.40;;
31037;SDS011;17702;47.590;7.666;2023-11-18T14:55:17;7.75;;;5.47;;
31037;SDS011;17702;47.590;7.666;2023-11-18T14:57:46;11.43;;;9.43;;
31037;SDS011;17702;47.590;7.666;2023-11-18T15:00:12;6.55;;;4.53;;
31037;SDS011;17702;47.590;7.666;2023-11-18T15:02:46;7.40;;;5.55;;
31037;SDS011;17702;47.590;7.666;2023-11-18T15:05:14;4.95;;;4.50;;
31037;SDS011;17702;47.590;7.666;2023-11-18T15:07:43;4.70;;;4.30;;
31037;SDS011;17702;47.590;7.666;2023-11-18T15:10:10;4.18;;;3.88;;
31037;SDS011;17702;47.590;7.666;2023-11-18T15:12:36;5.55;;;3.95;;
31037;SDS011;17702;47.590;7.666;2023-11-18T15:15:02;5.35;;;3.70;;
31037;SDS011;17702;47.590;7.666;2023-11-18T15:17:29;5.03;;;3.80;;
31037;SDS011;17702;47.590;7.666;2023-11-18T15:19:55;5.28;;;4.28;;
31037;SDS011;17702;47.590;7.666;2023-11-18T15:22:21;4.32;;;3.90;;
31037;SDS011;17702;47.590;7.666;2023-11-18T15:24:48;4.45;;;3.88;;
31037;SDS011;17702;47.590;7.666;2023-11-18T15:27:13;3.78;;;3.40;;
31037;SDS011;17702;47.590;7.666;2023-11-18T15:29:40;3.95;;;3.65;;
31037;SDS011;17702;47.590;7.666;2023-11-18T15:32:14;4.22;;;3.92;;
31037;SDS011;17702;47.590;7.666;2023-11-18T15:34:41;4.63;;;3.78;;
31037;SDS011;17702;47.590;7.666;2023-11-18T15:37:07;4.22;;;3.83;;